South Florida, Florida
Current Conditions -  °F | °C
As of 5:53 AM on Friday 28 Nov 2014 (Local Time) from KFLL Reporting Station
Clear Clear  
Wind Chill: 53°   Ceiling: Unl
Heat Index: 53°   Visibility: 10mi
Dew Point: 44°   Wind: 10mph
Humidity: 71%   Direction: 330°NNW
Pressure: 30.18"   Gusts: NA
Location:  26.01°N, 80.15°W
Report Text: KFLL 281053Z 33009KT 10SM CLR 12/07 A3018 RMK AO2 SLP220 T01170067
Loading
Personal Weather Stations






























Interactive Weather Map New forecast layout! Learn more

10-Day Weather Forecast

Advertisements
Track Severe Weather on mobile